Time,TemperatureF,DewpointF,PressureIn,WindDirection,WindDirectionDegrees,WindSpeedMPH,WindSpeedGustMPH,Humidity,HourlyPrecipIn,Conditions,Clouds,dailyrainin,SoftwareType,DateUTC
2013-04-18 10:01:00,24.7,-2.4,30.41,NNE,26,0.0,1.0,30,0.00,,,0.00,Wunderground v.1.15,2013-04-18 18:01:00,
2013-04-18 10:06:00,24.8,-2.3,30.41,NE,35,2.0,5.0,30,0.00,,,0.00,Wunderground v.1.15,2013-04-18 18:06:00,
2013-04-18 10:11:00,25.0,-2.1,30.41,NE,53,3.0,5.0,30,0.00,,,0.00,Wunderground v.1.15,2013-04-18 18:11:00,
2013-04-18 10:17:00,25.1,-3.5,30.42,NNE,27,1.0,7.0,28,0.00,,,0.00,Wunderground v.1.15,2013-04-18 18:17:00,
2013-04-18 10:22:00,25.3,-1.9,30.42,NNW,334,1.0,5.0,30,0.00,,,0.00,Wunderground v.1.15,2013-04-18 18:22:00,
2013-04-18 10:27:00,25.4,-1.8,30.42,ENE,70,3.0,6.0,30,0.00,,,0.00,Wunderground v.1.15,2013-04-18 18:27:00,
2013-04-18 10:32:00,25.8,-2.9,30.41,North,5,0.0,4.0,28,0.00,,,0.00,Wunderground v.1.15,2013-04-18 18:32:00,
2013-04-18 10:37:00,26.3,-2.4,30.41,North,355,1.0,4.0,28,0.00,,,0.00,Wunderground v.1.15,2013-04-18 18:37:00,
2013-04-18 10:42:00,26.7,-2.9,30.41,NE,35,2.0,7.0,27,0.00,,,0.00,Wunderground v.1.15,2013-04-18 18:42:00,
2013-04-18 10:47:00,26.7,-2.9,30.42,East,91,0.0,7.0,27,0.00,,,0.00,Wunderground v.1.15,2013-04-18 18:47:00,
2013-04-18 10:52:00,27.2,-1.7,30.42,East,100,0.0,6.0,28,0.00,,,0.00,Wunderground v.1.15,2013-04-18 18:52:00,
2013-04-18 10:57:00,27.0,-3.4,30.42,NE,42,3.0,7.0,26,0.00,,,0.00,Wunderground v.1.15,2013-04-18 18:57:00,
2013-04-18 11:02:00,26.3,-4.0,30.42,East,81,0.0,15.0,26,0.00,,,0.00,Wunderground v.1.15,2013-04-18 19:02:00,
2013-04-18 11:07:00,26.3,-4.0,30.42,NE,34,5.0,15.0,26,0.00,,,0.00,Wunderground v.1.15,2013-04-18 19:07:00,
2013-04-18 11:12:00,26.4,-3.9,30.42,North,351,5.0,12.0,26,0.00,,,0.00,Wunderground v.1.15,2013-04-18 19:12:00,
2013-04-18 11:17:00,26.6,-3.7,30.42,NNW,348,0.0,14.0,26,0.00,,,0.00,Wunderground v.1.15,2013-04-18 19:17:00,
2013-04-18 11:22:00,26.7,-4.5,30.42,NNE,31,2.0,9.0,25,0.00,,,0.00,Wunderground v.1.15,2013-04-18 19:22:00,
2013-04-18 11:27:00,26.9,-4.3,30.42,North,360,6.0,13.0,25,0.00,,,0.00,Wunderground v.1.15,2013-04-18 19:27:00,
2013-04-18 11:32:00,26.9,-4.3,30.41,North,5,0.0,8.0,25,0.00,,,0.00,Wunderground v.1.15,2013-04-18 19:32:00,
2013-04-18 11:38:00,27.3,-3.1,30.41,NNW,345,3.0,8.0,26,0.00,,,0.00,Wunderground v.1.15,2013-04-18 19:38:00,
2013-04-18 11:43:00,27.6,-3.7,30.41,ENE,61,1.0,15.0,25,0.00,,,0.00,Wunderground v.1.15,2013-04-18 19:43:00,
2013-04-18 11:48:00,27.5,-3.0,30.41,NNE,24,0.0,15.0,26,0.00,,,0.00,Wunderground v.1.15,2013-04-18 19:48:00,
2013-04-18 11:53:00,27.6,-2.9,30.41,North,360,2.0,11.0,26,0.00,,,0.00,Wunderground v.1.15,2013-04-18 19:53:00,
2013-04-18 11:58:00,27.6,-4.6,30.41,ENE,70,6.0,11.0,24,0.00,,,0.00,Wunderground v.1.15,2013-04-18 19:58:00,
2013-04-18 12:03:00,27.8,-4.4,30.41,NNE,16,2.0,10.0,24,0.00,,,0.00,Wunderground v.1.15,2013-04-18 20:03:00,
2013-04-18 12:08:00,28.1,-3.3,30.41,North,360,0.0,10.0,25,0.00,,,0.00,Wunderground v.1.15,2013-04-18 20:08:00,
2013-04-18 12:13:00,28.7,-1.9,30.41,ENE,64,1.0,7.0,26,0.00,,,0.00,Wunderground v.1.15,2013-04-18 20:13:00,
2013-04-18 12:18:00,29.1,-1.6,30.41,North,10,0.0,7.0,26,0.00,,,0.00,Wunderground v.1.15,2013-04-18 20:18:00,
2013-04-18 12:23:00,29.4,-1.3,30.41,North,5,7.0,7.0,26,0.00,,,0.00,Wunderground v.1.15,2013-04-18 20:23:00,
2013-04-18 12:28:00,29.3,-1.4,30.41,NW,319,4.0,8.0,26,0.00,,,0.00,Wunderground v.1.15,2013-04-18 20:28:00,
2013-04-18 12:33:00,29.0,-1.7,30.41,NNE,28,0.0,10.0,26,0.00,,,0.00,Wunderground v.1.15,2013-04-18 20:33:00,
2013-04-18 12:38:00,29.0,-0.9,30.41,North,350,3.0,10.0,27,0.00,,,0.00,Wunderground v.1.15,2013-04-18 20:38:00,
2013-04-18 12:43:00,29.0,-0.9,30.41,NNE,30,1.0,6.0,27,0.00,,,0.00,Wunderground v.1.15,2013-04-18 20:43:00,
2013-04-18 12:48:00,29.1,-0.8,30.41,NNW,330,5.0,6.0,27,0.00,,,0.00,Wunderground v.1.15,2013-04-18 20:48:00,
2013-04-18 12:53:00,28.8,-1.0,30.41,NW,315,2.0,6.0,27,0.00,,,0.00,Wunderground v.1.15,2013-04-18 20:53:00,
2013-04-18 12:58:00,28.8,-1.0,30.41,NW,315,2.0,12.0,27,0.00,,,0.00,Wunderground v.1.15,2013-04-18 20:58:00,
2013-04-18 13:03:00,29.1,-0.8,30.41,NNW,343,4.0,6.0,27,0.00,,,0.00,Wunderground v.1.15,2013-04-18 21:03:00,
2013-04-18 13:09:00,29.3,0.2,30.41,North,351,7.0,10.0,28,0.00,,,0.00,Wunderground v.1.15,2013-04-18 21:09:00,
2013-04-18 13:14:00,29.7,0.5,30.41,SE,126,0.0,3.0,28,0.00,,,0.00,Wunderground v.1.15,2013-04-18 21:14:00,
2013-04-18 13:19:00,30.0,0.0,30.40,NNE,22,6.0,6.0,27,0.00,,,0.00,Wunderground v.1.15,2013-04-18 21:19:00,
2013-04-18 13:24:00,29.8,0.6,30.40,NNE,22,1.0,7.0,28,0.00,,,0.00,Wunderground v.1.15,2013-04-18 21:24:00,
2013-04-18 13:29:00,30.0,0.8,30.40,NW,313,2.0,7.0,28,0.00,,,0.00,Wunderground v.1.15,2013-04-18 21:29:00,
2013-04-18 13:34:00,29.7,0.5,30.40,ESE,118,0.0,10.0,28,0.00,,,0.00,Wunderground v.1.15,2013-04-18 21:34:00,
2013-04-18 13:39:00,30.1,0.9,30.40,East,81,3.0,10.0,28,0.00,,,0.00,Wunderground v.1.15,2013-04-18 21:39:00,
2013-04-18 13:44:00,30.1,0.9,30.40,NW,314,4.0,5.0,28,0.00,,,0.00,Wunderground v.1.15,2013-04-18 21:44:00,
2013-04-18 13:49:00,29.7,0.5,30.40,NW,318,4.0,9.0,28,0.00,,,0.00,Wunderground v.1.15,2013-04-18 21:49:00,
2013-04-18 13:54:00,29.4,0.3,30.40,NNE,27,2.0,12.0,28,0.00,,,0.00,Wunderground v.1.15,2013-04-18 21:54:00,
2013-04-18 13:59:00,29.5,0.3,30.40,NW,325,3.0,12.0,28,0.00,,,0.00,Wunderground v.1.15,2013-04-18 21:59:00,
2013-04-18 14:04:00,29.8,0.6,30.40,NNE,32,4.0,9.0,28,0.00,,,0.00,Wunderground v.1.15,2013-04-18 22:04:00,
2013-04-18 14:09:00,29.8,0.6,30.40,North,355,1.0,9.0,28,0.00,,,0.00,Wunderground v.1.15,2013-04-18 22:09:00,
2013-04-18 14:14:00,30.0,0.8,30.40,NE,45,5.0,7.0,28,0.00,,,0.00,Wunderground v.1.15,2013-04-18 22:14:00,
2013-04-18 14:19:00,29.8,-0.2,30.40,East,80,1.0,12.0,27,0.00,,,0.00,Wunderground v.1.15,2013-04-18 22:19:00,
2013-04-18 14:24:00,30.3,2.5,30.40,ENE,74,6.0,7.0,30,0.00,,,0.00,Wunderground v.1.15,2013-04-18 22:24:00,
2013-04-18 14:29:00,30.4,1.1,30.40,ENE,72,3.0,3.0,28,0.00,,,0.00,Wunderground v.1.15,2013-04-18 22:29:00,
2013-04-18 14:34:00,30.6,1.3,30.40,NNW,331,3.0,6.0,28,0.00,,,0.00,Wunderground v.1.15,2013-04-18 22:34:00,
2013-04-18 14:39:00,30.7,1.4,30.40,NE,38,5.0,5.0,28,0.00,,,0.00,Wunderground v.1.15,2013-04-18 22:39:00,
2013-04-18 14:45:00,30.6,1.3,30.40,North,355,1.0,7.0,28,0.00,,,0.00,Wunderground v.1.15,2013-04-18 22:45:00,
2013-04-18 14:50:00,31.2,1.0,30.40,NNW,333,9.0,9.0,27,0.00,,,0.00,Wunderground v.1.15,2013-04-18 22:50:00,
2013-04-18 14:55:00,30.9,1.6,30.40,ENE,62,5.0,12.0,28,0.00,,,0.00,Wunderground v.1.15,2013-04-18 22:55:00,
2013-04-18 15:00:00,30.7,1.4,30.40,NNW,332,3.0,4.0,28,0.00,,,0.00,Wunderground v.1.15,2013-04-18 23:00:00,
2013-04-18 15:05:00,30.9,2.3,30.40,NNW,338,2.0,9.0,29,0.00,,,0.00,Wunderground v.1.15,2013-04-18 23:05:00,
2013-04-18 15:10:00,30.7,0.6,30.40,NNW,340,2.0,5.0,27,0.00,,,0.00,Wunderground v.1.15,2013-04-18 23:10:00,
2013-04-18 15:15:00,30.6,2.1,30.40,West,275,6.0,10.0,29,0.00,,,0.00,Wunderground v.1.15,2013-04-18 23:15:00,
2013-04-18 15:20:00,30.7,1.4,30.40,North,360,0.0,4.0,28,0.00,,,0.00,Wunderground v.1.15,2013-04-18 23:20:00,
2013-04-18 15:25:00,30.7,1.4,30.40,NNE,19,3.0,12.0,28,0.00,,,0.00,Wunderground v.1.15,2013-04-18 23:25:00,
2013-04-18 15:30:00,31.0,2.4,30.41,North,360,2.0,3.0,29,0.00,,,0.00,Wunderground v.1.15,2013-04-18 23:30:00,
2013-04-18 15:35:00,31.2,1.8,30.41,ENE,69,7.0,11.0,28,0.00,,,0.00,Wunderground v.1.15,2013-04-18 23:35:00,
2013-04-18 15:40:00,31.3,1.9,30.41,East,82,1.0,3.0,28,0.00,,,0.00,Wunderground v.1.15,2013-04-18 23:40:00,
2013-04-18 15:45:00,31.3,1.9,30.41,North,355,7.0,12.0,28,0.00,,,0.00,Wunderground v.1.15,2013-04-18 23:45:00,
2013-04-18 15:50:00,31.0,2.4,30.41,North,355,3.0,3.0,29,0.00,,,0.00,Wunderground v.1.15,2013-04-18 23:50:00,
2013-04-18 15:55:00,30.7,2.9,30.41,ENE,60,0.0,16.0,30,0.00,,,0.00,Wunderground v.1.15,2013-04-18 23:55:00,
2013-04-18 16:00:00,31.5,2.1,30.40,NW,312,4.0,5.0,28,0.00,,,0.00,Wunderground v.1.15,2013-04-19 00:00:00,
2013-04-18 16:05:00,31.5,2.8,30.40,WNW,295,0.0,5.0,29,0.00,,,0.00,Wunderground v.1.15,2013-04-19 00:05:00,
2013-04-18 16:10:00,31.3,2.7,30.40,North,355,9.0,9.0,29,0.00,,,0.00,Wunderground v.1.15,2013-04-19 00:10:00,
2013-04-18 16:15:00,31.2,2.6,30.40,NNW,331,1.0,9.0,29,0.00,,,0.00,Wunderground v.1.15,2013-04-19 00:15:00,
2013-04-18 16:20:00,30.9,2.3,30.40,NNW,344,1.0,5.0,29,0.00,,,0.00,Wunderground v.1.15,2013-04-19 00:20:00,
2013-04-18 16:25:00,30.7,3.6,30.40,NW,318,1.0,10.0,31,0.00,,,0.00,Wunderground v.1.15,2013-04-19 00:25:00,
2013-04-18 16:30:00,31.2,2.6,30.40,NE,49,0.0,2.0,29,0.00,,,0.00,Wunderground v.1.15,2013-04-19 00:30:00,
2013-04-18 16:35:00,31.6,2.2,30.40,NNW,340,0.0,3.0,28,0.00,,,0.00,Wunderground v.1.15,2013-04-19 00:35:00,
2013-04-18 16:41:00,31.8,2.3,30.40,NNW,345,3.0,5.0,28,0.00,,,0.00,Wunderground v.1.15,2013-04-19 00:41:00,
2013-04-18 16:46:00,31.3,1.1,30.40,NW,325,1.0,10.0,27,0.00,,,0.00,Wunderground v.1.15,2013-04-19 00:46:00,
2013-04-18 16:51:00,30.9,2.3,30.40,NNW,333,4.0,7.0,29,0.00,,,0.00,Wunderground v.1.15,2013-04-19 00:51:00,
2013-04-18 16:56:00,30.7,1.4,30.40,ENE,75,2.0,12.0,28,0.00,,,0.00,Wunderground v.1.15,2013-04-19 00:56:00,
2013-04-18 17:01:00,30.7,1.4,30.40,North,355,9.0,13.0,28,0.00,,,0.00,Wunderground v.1.15,2013-04-19 01:01:00,
2013-04-18 17:06:00,30.3,2.5,30.40,NNW,336,1.0,15.0,30,0.00,,,0.00,Wunderground v.1.15,2013-04-19 01:06:00,
2013-04-18 17:11:00,30.7,2.9,30.40,North,11,5.0,9.0,30,0.00,,,0.00,Wunderground v.1.15,2013-04-19 01:11:00,
2013-04-18 17:16:00,30.9,3.0,30.40,NE,38,2.0,9.0,30,0.00,,,0.00,Wunderground v.1.15,2013-04-19 01:16:00,
2013-04-18 17:21:00,30.7,2.1,30.40,North,5,2.0,9.0,29,0.00,,,0.00,Wunderground v.1.15,2013-04-19 01:21:00,
2013-04-18 17:26:00,30.6,1.3,30.40,NNE,32,4.0,12.0,28,0.00,,,0.00,Wunderground v.1.15,2013-04-19 01:26:00,
2013-04-18 17:31:00,30.6,2.8,30.40,NNE,31,4.0,4.0,30,0.00,,,0.00,Wunderground v.1.15,2013-04-19 01:31:00,
2013-04-18 17:36:00,30.4,1.9,30.40,NW,316,3.0,9.0,29,0.00,,,0.00,Wunderground v.1.15,2013-04-19 01:36:00,
2013-04-18 17:41:00,30.3,3.2,30.40,ENE,60,6.0,6.0,31,0.00,,,0.00,Wunderground v.1.15,2013-04-19 01:41:00,
2013-04-18 17:47:00,30.3,3.9,30.40,NNW,338,2.0,11.0,32,0.00,,,0.00,Wunderground v.1.15,2013-04-19 01:47:00,
2013-04-18 17:52:00,30.4,2.6,30.40,NNE,17,5.0,6.0,30,0.00,,,0.00,Wunderground v.1.15,2013-04-19 01:52:00,
2013-04-18 17:57:00,30.4,3.3,30.40,NNE,24,3.0,9.0,31,0.00,,,0.00,Wunderground v.1.15,2013-04-19 01:57:00,
2013-04-18 18:02:00,30.4,2.6,30.41,NNW,348,6.0,10.0,30,0.00,,,0.00,Wunderground v.1.15,2013-04-19 02:02:00,
2013-04-18 18:07:00,30.1,2.3,30.41,NNW,338,3.0,10.0,30,0.00,,,0.00,Wunderground v.1.15,2013-04-19 02:07:00,
2013-04-18 18:12:00,30.0,3.0,30.41,NE,36,3.0,9.0,31,0.00,,,0.00,Wunderground v.1.15,2013-04-19 02:12:00,
2013-04-18 18:17:00,30.0,2.3,30.41,North,5,1.0,13.0,30,0.00,,,0.00,Wunderground v.1.15,2013-04-19 02:17:00,
2013-04-18 18:22:00,29.8,2.1,30.41,NNE,20,5.0,10.0,30,0.00,,,0.00,Wunderground v.1.15,2013-04-19 02:22:00,
2013-04-18 18:27:00,29.7,4.1,30.41,NNE,23,1.0,10.0,33,0.00,,,0.00,Wunderground v.1.15,2013-04-19 02:27:00,
2013-04-18 18:32:00,29.8,3.5,30.40,ESE,103,0.0,12.0,32,0.00,,,0.00,Wunderground v.1.15,2013-04-19 02:32:00,
2013-04-18 18:37:00,29.5,3.2,30.40,NNE,15,1.0,12.0,32,0.00,,,0.00,Wunderground v.1.15,2013-04-19 02:37:00,
2013-04-18 18:42:00,29.3,2.4,30.40,North,350,5.0,10.0,31,0.00,,,0.00,Wunderground v.1.15,2013-04-19 02:42:00,
2013-04-18 18:47:00,28.8,1.9,30.41,NE,46,1.0,14.0,31,0.00,,,0.00,Wunderground v.1.15,2013-04-19 02:47:00,
2013-04-18 18:52:00,28.5,2.3,30.41,NNW,336,0.0,9.0,32,0.00,,,0.00,Wunderground v.1.15,2013-04-19 02:52:00,
2013-04-18 18:57:00,28.4,2.9,30.41,SE,125,1.0,10.0,33,0.00,,,0.00,Wunderground v.1.15,2013-04-19 02:57:00,
2013-04-18 19:02:00,28.1,2.6,30.41,East,94,1.0,9.0,33,0.00,,,0.00,Wunderground v.1.15,2013-04-19 03:02:00,
2013-04-18 19:08:00,27.9,2.5,30.41,NE,50,2.0,12.0,33,0.00,,,0.00,Wunderground v.1.15,2013-04-19 03:08:00,
2013-04-18 19:13:00,27.8,2.4,30.41,ENE,68,6.0,9.0,33,0.00,,,0.00,Wunderground v.1.15,2013-04-19 03:13:00,
2013-04-18 19:18:00,27.6,2.8,30.42,NW,311,0.0,9.0,34,0.00,,,0.00,Wunderground v.1.15,2013-04-19 03:18:00,
2013-04-18 19:23:00,27.5,2.8,30.42,NNW,345,1.0,8.0,34,0.00,,,0.00,Wunderground v.1.15,2013-04-19 03:23:00,
2013-04-18 19:28:00,27.2,2.5,30.42,North,5,1.0,17.0,34,0.00,,,0.00,Wunderground v.1.15,2013-04-19 03:28:00,
2013-04-18 19:33:00,27.0,2.3,30.43,North,5,8.0,12.0,34,0.00,,,0.00,Wunderground v.1.15,2013-04-19 03:33:00,
2013-04-18 19:38:00,26.9,2.8,30.43,NNE,16,0.0,12.0,35,0.00,,,0.00,Wunderground v.1.15,2013-04-19 03:38:00,
2013-04-18 19:43:00,26.7,2.0,30.43,NNE,20,4.0,13.0,34,0.00,,,0.00,Wunderground v.1.15,2013-04-19 03:43:00,
2013-04-18 19:48:00,26.4,2.4,30.43,NE,52,0.0,13.0,35,0.00,,,0.00,Wunderground v.1.15,2013-04-19 03:48:00,
2013-04-18 19:53:00,26.3,2.3,30.43,NNE,30,1.0,11.0,35,0.00,,,0.00,Wunderground v.1.15,2013-04-19 03:53:00,
2013-04-18 19:58:00,26.3,2.3,30.43,ENE,70,0.0,11.0,35,0.00,,,0.00,Wunderground v.1.15,2013-04-19 03:58:00,
2013-04-18 20:01:00,26.3,1.7,30.43,NNE,28,1.0,10.0,34,0.00,,,0.00,Wunderground v.1.15,2013-04-19 04:01:00,
2013-04-18 20:06:00,26.0,2.0,30.43,NE,50,12.0,12.0,35,0.00,,,0.00,Wunderground v.1.15,2013-04-19 04:06:00,
2013-04-18 20:12:00,25.8,3.1,30.43,North,5,0.0,12.0,37,0.00,,,0.00,Wunderground v.1.15,2013-04-19 04:12:00,
2013-04-18 20:17:00,25.7,3.0,30.43,ENE,61,2.0,12.0,37,0.00,,,0.00,Wunderground v.1.15,2013-04-19 04:17:00,
2013-04-18 20:22:00,25.6,2.3,30.43,NE,41,0.0,2.0,36,0.00,,,0.00,Wunderground v.1.15,2013-04-19 04:22:00,
2013-04-18 20:27:00,25.6,2.3,30.43,North,355,4.0,6.0,36,0.00,,,0.00,Wunderground v.1.15,2013-04-19 04:27:00,
2013-04-18 20:32:00,25.4,2.1,30.43,NE,36,1.0,9.0,36,0.00,,,0.00,Wunderground v.1.15,2013-04-19 04:32:00,
2013-04-18 20:37:00,25.3,2.0,30.43,North,10,0.0,9.0,36,0.00,,,0.00,Wunderground v.1.15,2013-04-19 04:37:00,
2013-04-18 20:42:00,25.0,1.8,30.43,North,355,2.0,5.0,36,0.00,,,0.00,Wunderground v.1.15,2013-04-19 04:42:00,
2013-04-18 20:47:00,24.8,1.0,30.43,North,355,2.0,8.0,35,0.00,,,0.00,Wunderground v.1.15,2013-04-19 04:47:00,
2013-04-18 20:52:00,24.7,1.5,30.43,ESE,105,0.0,6.0,36,0.00,,,0.00,Wunderground v.1.15,2013-04-19 04:52:00,
2013-04-18 20:57:00,24.5,1.3,30.43,North,9,1.0,6.0,36,0.00,,,0.00,Wunderground v.1.15,2013-04-19 04:57:00,
2013-04-18 21:02:00,24.5,1.9,30.43,East,80,2.0,11.0,37,0.00,,,0.00,Wunderground v.1.15,2013-04-19 05:02:00,
2013-04-18 21:07:00,24.2,1.6,30.43,NNE,15,0.0,11.0,37,0.00,,,0.00,Wunderground v.1.15,2013-04-19 05:07:00,
2013-04-18 21:12:00,23.9,1.4,30.43,NE,50,0.0,6.0,37,0.00,,,0.00,Wunderground v.1.15,2013-04-19 05:12:00,
2013-04-18 21:17:00,23.8,1.8,30.44,North,11,5.0,6.0,38,0.00,,,0.00,Wunderground v.1.15,2013-04-19 05:17:00,
2013-04-18 21:22:00,23.6,1.7,30.44,NNW,336,0.0,4.0,38,0.00,,,0.00,Wunderground v.1.15,2013-04-19 05:22:00,
2013-04-18 21:27:00,23.5,1.6,30.44,ENE,57,0.0,4.0,38,0.00,,,0.00,Wunderground v.1.15,2013-04-19 05:27:00,
2013-04-18 21:32:00,23.3,1.4,30.44,NE,54,0.0,2.0,38,0.00,,,0.00,Wunderground v.1.15,2013-04-19 05:32:00,
2013-04-18 21:37:00,23.0,1.7,30.44,NNE,23,0.0,4.0,39,0.00,,,0.00,Wunderground v.1.15,2013-04-19 05:37:00,
2013-04-18 21:42:00,22.7,1.4,30.44,ENE,76,2.0,7.0,39,0.00,,,0.00,Wunderground v.1.15,2013-04-19 05:42:00,
2013-04-18 21:47:00,22.7,1.4,30.44,NNE,27,1.0,7.0,39,0.00,,,0.00,Wunderground v.1.15,2013-04-19 05:47:00,
2013-04-18 21:52:00,22.5,1.2,30.44,ENE,57,2.0,5.0,39,0.00,,,0.00,Wunderground v.1.15,2013-04-19 05:52:00,
2013-04-18 21:57:00,22.5,1.2,30.44,NE,43,0.0,5.0,39,0.00,,,0.00,Wunderground v.1.15,2013-04-19 05:57:00,
2013-04-18 22:02:00,22.2,1.5,30.45,East,86,0.0,2.0,40,0.00,,,0.00,Wunderground v.1.15,2013-04-19 06:02:00,
2013-04-18 22:07:00,22.2,1.5,30.45,ENE,59,0.0,2.0,40,0.00,,,0.00,Wunderground v.1.15,2013-04-19 06:07:00,
2013-04-18 22:12:00,22.1,0.9,30.45,NE,53,0.0,3.0,39,0.00,,,0.00,Wunderground v.1.15,2013-04-19 06:12:00,
2013-04-18 22:17:00,21.9,1.2,30.45,NE,56,0.0,3.0,40,0.00,,,0.00,Wunderground v.1.15,2013-04-19 06:17:00,
2013-04-18 22:23:00,21.9,1.2,30.45,NNE,32,0.0,2.0,40,0.00,,,0.00,Wunderground v.1.15,2013-04-19 06:23:00,
2013-04-18 22:28:00,21.6,1.0,30.45,North,350,1.0,2.0,40,0.00,,,0.00,Wunderground v.1.15,2013-04-19 06:28:00,
2013-04-18 22:33:00,21.3,1.2,30.45,NNW,346,0.0,3.0,41,0.00,,,0.00,Wunderground v.1.15,2013-04-19 06:33:00,
2013-04-18 22:38:00,21.1,1.0,30.45,ENE,66,0.0,6.0,41,0.00,,,0.00,Wunderground v.1.15,2013-04-19 06:38:00,
2013-04-18 22:43:00,21.0,0.9,30.45,ENE,59,1.0,1.0,41,0.00,,,0.00,Wunderground v.1.15,2013-04-19 06:43:00,
2013-04-18 22:48:00,20.8,0.8,30.45,NNE,16,3.0,4.0,41,0.00,,,0.00,Wunderground v.1.15,2013-04-19 06:48:00,
2013-04-18 22:53:00,20.8,0.8,30.45,NNE,20,2.0,5.0,41,0.00,,,0.00,Wunderground v.1.15,2013-04-19 06:53:00,
2013-04-18 22:58:00,20.8,0.8,30.45,NNE,30,0.0,5.0,41,0.00,,,0.00,Wunderground v.1.15,2013-04-19 06:58:00,
2013-04-18 23:03:00,20.6,0.6,30.46,North,5,0.0,6.0,41,0.00,,,0.00,Wunderground v.1.15,2013-04-19 07:03:00,
2013-04-18 23:08:00,20.6,0.6,30.46,NNE,20,1.0,6.0,41,0.00,,,0.00,Wunderground v.1.15,2013-04-19 07:08:00,
2013-04-18 23:13:00,20.5,0.5,30.46,North,350,1.0,2.0,41,0.00,,,0.00,Wunderground v.1.15,2013-04-19 07:13:00,
2013-04-18 23:18:00,20.3,0.8,30.46,North,351,3.0,3.0,42,0.00,,,0.00,Wunderground v.1.15,2013-04-19 07:18:00,
2013-04-18 23:23:00,20.3,0.3,30.46,NNE,12,1.0,5.0,41,0.00,,,0.00,Wunderground v.1.15,2013-04-19 07:23:00,
2013-04-18 23:28:00,20.2,0.7,30.46,NNE,17,0.0,5.0,42,0.00,,,0.00,Wunderground v.1.15,2013-04-19 07:28:00,